Commodore Clipper — C6QQ3 — position and weather

sailwx.info

Track history (hours):
 
Tides and Currents Weather Stations Pressure Air Temp Water Temp Dewpoint Dewpoint Depression Visibility Wind Speed Wind Dir Waves Ship Positions

Commodore Clipper

Operator: Condor Marine Services

Last reported at 2017-Feb-23 01:33 UTC. Time now 2017-Feb-23 02:32 UTC.
Position N 49°11' W 002°18'.

Length 130 m; draft 5.2 m.

Type: Ship. MMSI: 308094000.

Date/timePositionNaut miles runAvg speedWind from/ knotsBaromVisibWave heightAir tempDewpointWater temp
2017-Feb-23 01:33N 49°11' W 002°18'23 3.3
2017-Feb-22 18:33N 49°34' W 002°11'1414.1
2017-Feb-22 17:33N 49°46' W 002°00'1313.3
2017-Feb-22 16:34N 49°55' W 001°45'1313.4
2017-Feb-22 15:34N 50°06' W 001°34'2814.0
2017-Feb-22 13:33N 50°30' W 001°11'1414.4
2017-Feb-22 12:34N 50°44' W 001°03'6 5.6
2017-Feb-22 11:34N 50°49' W 001°06'0 0.3
2017-Feb-22 10:33N 50°49' W 001°06'0 0.0
2017-Feb-22 09:33N 50°49' W 001°06'2 1.6
2017-Feb-22 08:34N 50°47' W 001°06'6 5.7
2017-Feb-22 07:33N 50°42' W 001°03'1 1.1
2017-Feb-22 06:33N 50°41' W 001°03'1 0.8
2017-Feb-22 05:33N 50°40' W 001°04'1412.4
2017-Feb-22 04:28N 50°29' W 001°16'2512.6
2017-Feb-22 02:28N 50°08' W 001°37'2117.3
2017-Feb-22 01:15N 49°51' W 001°56'1217.3
2017-Feb-22 00:34N 49°40' W 002°05'31 6.2
2017-Feb-21 19:32N 49°10' W 002°16'39 7.7
2017-Feb-21 14:27N 49°47' W 001°58'1415.2
2017-Feb-21 13:33N 49°59' W 001°47'3316.4
2017-Feb-21 11:33N 50°26' W 001°18'1717.4
2017-Feb-21 10:34N 50°41' W 001°03'8 8.3
2017-Feb-21 09:33N 50°49' W 001°06'0 0.0
2017-Feb-21 08:33N 50°49' W 001°06'0 0.0
2017-Feb-21 07:33N 50°49' W 001°06'0 0.0
2017-Feb-21 06:33N 50°49' W 001°06'6 6.4
2017-Feb-21 05:34N 50°43' W 001°02'1614.8
2017-Feb-21 04:30N 50°29' W 001°15'1613.4
2017-Feb-21 03:18N 50°15' W 001°28'912.5
2017-Feb-21 02:34N 50°08' W 001°37'1212.3
2017-Feb-21 01:33N 49°57' W 001°47'30 2.9
2017-Feb-20 15:24N 49°33' W 002°12'1515.0
2017-Feb-20 14:23N 49°46' W 002°01'1315.3
2017-Feb-20 13:34N 49°57' W 001°51'1515.4
2017-Feb-20 12:33N 50°08' W 001°35'2516.7
2017-Feb-20 11:05N 50°29' W 001°13'917.0
2017-Feb-20 10:33N 50°36' W 001°05'1312.6
2017-Feb-20 09:34N 50°49' W 001°07'1 0.7
2017-Feb-20 08:34N 50°49' W 001°06'0 0.0
2017-Feb-20 07:34N 50°49' W 001°06'0 0.0
2017-Feb-20 06:34N 50°49' W 001°06'0 0.0
2017-Feb-20 05:34N 50°49' W 001°06'0 0.0
2017-Feb-20 04:33N 50°49' W 001°06'0 0.0
2017-Feb-20 03:33N 50°49' W 001°06'0 0.0
2017-Feb-20 02:34N 50°49' W 001°06'0 0.0
2017-Feb-20 01:34N 50°49' W 001°06'0 0.0
2017-Feb-20 00:34N 50°49' W 001°06'0 0.0
2017-Feb-19 23:34N 50°49' W 001°06'0 0.0
2017-Feb-19 22:33N 50°49' W 001°06'0 0.0
2017-Feb-19 21:34N 50°49' W 001°06'0 0.0
2017-Feb-19 20:33N 50°49' W 001°06'0 0.0
2017-Feb-19 19:33N 50°49' W 001°06'0 0.0
2017-Feb-19 18:33N 50°49' W 001°06'0 0.0
2017-Feb-19 17:33N 50°49' W 001°06'0 0.0
2017-Feb-19 16:34N 50°49' W 001°06'0 0.0
2017-Feb-19 15:34N 50°49' W 001°06'0 0.0
2017-Feb-19 14:33N 50°49' W 001°06'0 0.0
2017-Feb-19 13:34N 50°49' W 001°06'0 0.0
2017-Feb-19 12:33N 50°49' W 001°06'0 0.0
2017-Feb-19 11:34N 50°49' W 001°06'0 0.0
2017-Feb-19 10:33N 50°49' W 001°06'0 0.0
2017-Feb-19 09:34N 50°49' W 001°06'0 0.0
2017-Feb-19 08:33N 50°49' W 001°06'0 0.0
2017-Feb-19 07:33N 50°49' W 001°06'0 0.0
2017-Feb-19 06:34N 50°49' W 001°06'6 6.3
2017-Feb-19 05:34N 50°43' W 001°03'1312.6
2017-Feb-19 04:34N 50°32' W 001°13'1111.4
2017-Feb-19 03:33N 50°23' W 001°25'1212.4
2017-Feb-19 02:34N 50°15' W 001°39'1312.5
2017-Feb-19 01:34N 50°04' W 001°49'1312.9
2017-Feb-19 00:33N 49°52' W 001°57'3215.8
2017-Feb-18 22:33N 49°26' W 002°26'4 4.0
2017-Feb-18 21:34N 49°27' W 002°32'31 3.9
2017-Feb-18 13:33N 49°50' W 001°57'1615.6
2017-Feb-18 12:33N 50°04' W 001°47'1715.7
2017-Feb-18 11:27N 50°17' W 001°30'1516.3
2017-Feb-18 10:34N 50°29' W 001°16'1616.1
2017-Feb-18 09:34N 50°42' W 001°00'8 7.9
2017-Feb-18 08:33N 50°49' W 001°06'0 0.0
2017-Feb-18 07:33N 50°49' W 001°06'0 0.0
2017-Feb-18 06:33N 50°49' W 001°06'7 7.1
2017-Feb-18 05:34N 50°42' W 001°03'1514.5
2017-Feb-18 04:33N 50°30' W 001°15'1212.1
2017-Feb-18 03:33N 50°19' W 001°26'1212.0
2017-Feb-18 02:33N 50°11' W 001°38'1211.6
2017-Feb-18 01:33N 49°60' W 001°45'1212.4
2017-Feb-18 00:33N 49°50' W 001°57'2118.4
2017-Feb-17 23:24N 49°31' W 002°11'1619.3
2017-Feb-17 22:34N 49°16' W 002°20'10 4.2
2017-Feb-17 20:09N 49°11' W 002°07'0 0.1
2017-Feb-17 19:34N 49°11' W 002°07'1515.0
2017-Feb-17 18:33N 49°19' W 002°26'9 7.3
2017-Feb-17 17:21N 49°27' W 002°32'0 0.0
2017-Feb-17 16:33N 49°27' W 002°32'4 3.6
2017-Feb-17 15:33N 49°26' W 002°27'2517.6
2017-Feb-17 14:06N 49°46' W 002°02'916.4
2017-Feb-17 13:34N 49°54' W 001°55'1615.7
2017-Feb-17 12:33N 50°06' W 001°40'1915.4
2017-Feb-17 11:18N 50°21' W 001°20'1215.8
2017-Feb-17 10:33N 50°30' W 001°10'1414.1
2017-Feb-17 09:34N 50°43' W 001°02'6 5.7
2017-Feb-17 08:33N 50°49' W 001°06'0 0.0
2017-Feb-17 07:33N 50°49' W 001°06'0 0.0
2017-Feb-17 06:33N 50°49' W 001°06'7 7.5
2017-Feb-17 05:34N 50°42' W 001°03'1312.3
2017-Feb-17 04:30N 50°31' W 001°14'1110.5
2017-Feb-17 03:27N 50°22' W 001°25'1212.9
2017-Feb-17 02:34N 50°13' W 001°35'1312.7
2017-Feb-17 01:33N 50°03' W 001°47'1312.2
2017-Feb-17 00:32N 49°51' W 001°54'3216.1
2017-Feb-16 22:33N 49°23' W 002°16'26 3.1
2017-Feb-16 14:07N 49°46' W 002°00'916.6
2017-Feb-16 13:33N 49°54' W 001°52'1615.7
2017-Feb-16 12:33N 50°07' W 001°38'3015.0
2017-Feb-16 10:34N 50°31' W 001°10'1413.9
2017-Feb-16 09:34N 50°44' W 001°04'5 4.7
2017-Feb-16 08:33N 50°49' W 001°06'0 0.0
2017-Feb-16 07:34N 50°49' W 001°06'0 0.0
2017-Feb-16 06:34N 50°49' W 001°06'8 7.5
2017-Feb-16 05:33N 50°41' W 001°03'18 1.0
2017-Feb-15 11:28N 50°27' W 001°18'1314.5
2017-Feb-15 10:34N 50°38' W 001°06'1111.0
2017-Feb-15 09:33N 50°49' W 001°06'0 0.0
2017-Feb-15 08:34N 50°49' W 001°06'0 0.0
2017-Feb-15 07:33N 50°49' W 001°06'0 0.0
2017-Feb-15 06:33N 50°49' W 001°06'7 7.2
2017-Feb-15 05:33N 50°42' W 001°01'1814.3
2017-Feb-15 04:18N 50°27' W 001°16'1 0.1
2017-Feb-14 12:06N 50°28' W 001°17'915.9
2017-Feb-14 11:34N 50°35' W 001°09'1312.9
2017-Feb-14 10:33N 50°48' W 001°07'1 1.3
2017-Feb-14 09:33N 50°49' W 001°06'0 0.0
2017-Feb-14 08:33N 50°49' W 001°06'1 1.0
2017-Feb-14 07:33N 50°48' W 001°07'10 9.7
2017-Feb-14 06:34N 50°39' W 001°02'22 1.2
2017-Feb-13 11:32N 50°21' W 001°23'1313.5
2017-Feb-13 10:33N 50°32' W 001°12'1313.5
2017-Feb-13 09:33N 50°45' W 001°05'4 3.6
2017-Feb-13 08:34N 50°49' W 001°06'0 0.0
2017-Feb-13 07:33N 50°49' W 001°06'0 0.0
2017-Feb-13 06:33N 50°49' W 001°06'0 0.0
2017-Feb-13 05:33N 50°49' W 001°06'0 0.0
2017-Feb-13 04:33N 50°49' W 001°06'0 0.0
2017-Feb-13 03:34N 50°49' W 001°06'0 0.0
2017-Feb-13 02:34N 50°49' W 001°06'0 0.0
2017-Feb-13 01:33N 50°49' W 001°06'  
Track history (hours):
 
Tides and Currents Weather Stations Pressure Air Temp Water Temp Dewpoint Dewpoint Depression Visibility Wind Speed Wind Dir Waves Ship Positions

Commodore Clipper

Operator: Condor Marine Services

Last reported at 2017-Feb-23 01:33 UTC. Time now 2017-Feb-23 02:32 UTC.
Position N 49°11' W 002°18'.

Length 130 m; draft 5.2 m.

Type: Ship. MMSI: 308094000.

Date/timePositionNaut miles runAvg speedWind from/ knotsBaromVisibWave heightAir tempDewpointWater temp
2017-Feb-23 01:33N 49°11' W 002°18'23 3.3
2017-Feb-22 18:33N 49°34' W 002°11'1414.1
2017-Feb-22 17:33N 49°46' W 002°00'1313.3
2017-Feb-22 16:34N 49°55' W 001°45'1313.4
2017-Feb-22 15:34N 50°06' W 001°34'2814.0
2017-Feb-22 13:33N 50°30' W 001°11'1414.4
2017-Feb-22 12:34N 50°44' W 001°03'6 5.6
2017-Feb-22 11:34N 50°49' W 001°06'0 0.3
2017-Feb-22 10:33N 50°49' W 001°06'0 0.0
2017-Feb-22 09:33N 50°49' W 001°06'2 1.6
2017-Feb-22 08:34N 50°47' W 001°06'6 5.7
2017-Feb-22 07:33N 50°42' W 001°03'1 1.1
2017-Feb-22 06:33N 50°41' W 001°03'1 0.8
2017-Feb-22 05:33N 50°40' W 001°04'1412.4
2017-Feb-22 04:28N 50°29' W 001°16'2512.6
2017-Feb-22 02:28N 50°08' W 001°37'2117.3
2017-Feb-22 01:15N 49°51' W 001°56'1217.3
2017-Feb-22 00:34N 49°40' W 002°05'31 6.2
2017-Feb-21 19:32N 49°10' W 002°16'39 7.7
2017-Feb-21 14:27N 49°47' W 001°58'1415.2
2017-Feb-21 13:33N 49°59' W 001°47'3316.4
2017-Feb-21 11:33N 50°26' W 001°18'1717.4
2017-Feb-21 10:34N 50°41' W 001°03'8 8.3
2017-Feb-21 09:33N 50°49' W 001°06'0 0.0
2017-Feb-21 08:33N 50°49' W 001°06'0 0.0
2017-Feb-21 07:33N 50°49' W 001°06'0 0.0
2017-Feb-21 06:33N 50°49' W 001°06'6 6.4
2017-Feb-21 05:34N 50°43' W 001°02'1614.8
2017-Feb-21 04:30N 50°29' W 001°15'1613.4
2017-Feb-21 03:18N 50°15' W 001°28'912.5
2017-Feb-21 02:34N 50°08' W 001°37'1212.3
2017-Feb-21 01:33N 49°57' W 001°47'30 2.9
2017-Feb-20 15:24N 49°33' W 002°12'1515.0
2017-Feb-20 14:23N 49°46' W 002°01'1315.3
2017-Feb-20 13:34N 49°57' W 001°51'1515.4
2017-Feb-20 12:33N 50°08' W 001°35'2516.7
2017-Feb-20 11:05N 50°29' W 001°13'917.0
2017-Feb-20 10:33N 50°36' W 001°05'1312.6
2017-Feb-20 09:34N 50°49' W 001°07'1 0.7
2017-Feb-20 08:34N 50°49' W 001°06'0 0.0
2017-Feb-20 07:34N 50°49' W 001°06'0 0.0
2017-Feb-20 06:34N 50°49' W 001°06'0 0.0
2017-Feb-20 05:34N 50°49' W 001°06'0 0.0
2017-Feb-20 04:33N 50°49' W 001°06'0 0.0
2017-Feb-20 03:33N 50°49' W 001°06'0 0.0
2017-Feb-20 02:34N 50°49' W 001°06'0 0.0
2017-Feb-20 01:34N 50°49' W 001°06'0 0.0
2017-Feb-20 00:34N 50°49' W 001°06'0 0.0
2017-Feb-19 23:34N 50°49' W 001°06'0 0.0
2017-Feb-19 22:33N 50°49' W 001°06'0 0.0
2017-Feb-19 21:34N 50°49' W 001°06'0 0.0
2017-Feb-19 20:33N 50°49' W 001°06'0 0.0
2017-Feb-19 19:33N 50°49' W 001°06'0 0.0
2017-Feb-19 18:33N 50°49' W 001°06'0 0.0
2017-Feb-19 17:33N 50°49' W 001°06'0 0.0
2017-Feb-19 16:34N 50°49' W 001°06'0 0.0
2017-Feb-19 15:34N 50°49' W 001°06'0 0.0
2017-Feb-19 14:33N 50°49' W 001°06'0 0.0
2017-Feb-19 13:34N 50°49' W 001°06'0 0.0
2017-Feb-19 12:33N 50°49' W 001°06'0 0.0
2017-Feb-19 11:34N 50°49' W 001°06'0 0.0
2017-Feb-19 10:33N 50°49' W 001°06'0 0.0
2017-Feb-19 09:34N 50°49' W 001°06'0 0.0
2017-Feb-19 08:33N 50°49' W 001°06'0 0.0
2017-Feb-19 07:33N 50°49' W 001°06'0 0.0
2017-Feb-19 06:34N 50°49' W 001°06'6 6.3
2017-Feb-19 05:34N 50°43' W 001°03'1312.6
2017-Feb-19 04:34N 50°32' W 001°13'1111.4
2017-Feb-19 03:33N 50°23' W 001°25'1212.4
2017-Feb-19 02:34N 50°15' W 001°39'1312.5
2017-Feb-19 01:34N 50°04' W 001°49'1312.9
2017-Feb-19 00:33N 49°52' W 001°57'3215.8
2017-Feb-18 22:33N 49°26' W 002°26'4 4.0
2017-Feb-18 21:34N 49°27' W 002°32'31 3.9
2017-Feb-18 13:33N 49°50' W 001°57'1615.6
2017-Feb-18 12:33N 50°04' W 001°47'1715.7
2017-Feb-18 11:27N 50°17' W 001°30'1516.3
2017-Feb-18 10:34N 50°29' W 001°16'1616.1
2017-Feb-18 09:34N 50°42' W 001°00'8 7.9
2017-Feb-18 08:33N 50°49' W 001°06'0 0.0
2017-Feb-18 07:33N 50°49' W 001°06'0 0.0
2017-Feb-18 06:33N 50°49' W 001°06'7 7.1
2017-Feb-18 05:34N 50°42' W 001°03'1514.5
2017-Feb-18 04:33N 50°30' W 001°15'1212.1
2017-Feb-18 03:33N 50°19' W 001°26'1212.0
2017-Feb-18 02:33N 50°11' W 001°38'1211.6
2017-Feb-18 01:33N 49°60' W 001°45'1212.4
2017-Feb-18 00:33N 49°50' W 001°57'2118.4
2017-Feb-17 23:24N 49°31' W 002°11'1619.3
2017-Feb-17 22:34N 49°16' W 002°20'10 4.2
2017-Feb-17 20:09N 49°11' W 002°07'0 0.1
2017-Feb-17 19:34N 49°11' W 002°07'1515.0
2017-Feb-17 18:33N 49°19' W 002°26'9 7.3
2017-Feb-17 17:21N 49°27' W 002°32'0 0.0
2017-Feb-17 16:33N 49°27' W 002°32'4 3.6
2017-Feb-17 15:33N 49°26' W 002°27'2517.6
2017-Feb-17 14:06N 49°46' W 002°02'916.4
2017-Feb-17 13:34N 49°54' W 001°55'1615.7
2017-Feb-17 12:33N 50°06' W 001°40'1915.4
2017-Feb-17 11:18N 50°21' W 001°20'1215.8
2017-Feb-17 10:33N 50°30' W 001°10'1414.1
2017-Feb-17 09:34N 50°43' W 001°02'6 5.7
2017-Feb-17 08:33N 50°49' W 001°06'0 0.0
2017-Feb-17 07:33N 50°49' W 001°06'0 0.0
2017-Feb-17 06:33N 50°49' W 001°06'7 7.5
2017-Feb-17 05:34N 50°42' W 001°03'1312.3
2017-Feb-17 04:30N 50°31' W 001°14'1110.5
2017-Feb-17 03:27N 50°22' W 001°25'1212.9
2017-Feb-17 02:34N 50°13' W 001°35'1312.7
2017-Feb-17 01:33N 50°03' W 001°47'1312.2
2017-Feb-17 00:32N 49°51' W 001°54'3216.1
2017-Feb-16 22:33N 49°23' W 002°16'26 3.1
2017-Feb-16 14:07N 49°46' W 002°00'916.6
2017-Feb-16 13:33N 49°54' W 001°52'1615.7
2017-Feb-16 12:33N 50°07' W 001°38'3015.0
2017-Feb-16 10:34N 50°31' W 001°10'1413.9
2017-Feb-16 09:34N 50°44' W 001°04'5 4.7
2017-Feb-16 08:33N 50°49' W 001°06'0 0.0
2017-Feb-16 07:34N 50°49' W 001°06'0 0.0
2017-Feb-16 06:34N 50°49' W 001°06'8 7.5
2017-Feb-16 05:33N 50°41' W 001°03'18 1.0
2017-Feb-15 11:28N 50°27' W 001°18'1314.5
2017-Feb-15 10:34N 50°38' W 001°06'1111.0
2017-Feb-15 09:33N 50°49' W 001°06'0 0.0
2017-Feb-15 08:34N 50°49' W 001°06'0 0.0
2017-Feb-15 07:33N 50°49' W 001°06'0 0.0
2017-Feb-15 06:33N 50°49' W 001°06'7 7.2
2017-Feb-15 05:33N 50°42' W 001°01'1814.3
2017-Feb-15 04:18N 50°27' W 001°16'1 0.1
2017-Feb-14 12:06N 50°28' W 001°17'915.9
2017-Feb-14 11:34N 50°35' W 001°09'1312.9
2017-Feb-14 10:33N 50°48' W 001°07'1 1.3
2017-Feb-14 09:33N 50°49' W 001°06'0 0.0
2017-Feb-14 08:33N 50°49' W 001°06'1 1.0
2017-Feb-14 07:33N 50°48' W 001°07'10 9.7
2017-Feb-14 06:34N 50°39' W 001°02'22 1.2
2017-Feb-13 11:32N 50°21' W 001°23'1313.5
2017-Feb-13 10:33N 50°32' W 001°12'1313.5
2017-Feb-13 09:33N 50°45' W 001°05'4 3.6
2017-Feb-13 08:34N 50°49' W 001°06'0 0.0
2017-Feb-13 07:33N 50°49' W 001°06'0 0.0
2017-Feb-13 06:33N 50°49' W 001°06'0 0.0
2017-Feb-13 05:33N 50°49' W 001°06'0 0.0
2017-Feb-13 04:33N 50°49' W 001°06'0 0.0
2017-Feb-13 03:34N 50°49' W 001°06'0 0.0
2017-Feb-13 02:34N 50°49' W 001°06'0 0.0
2017-Feb-13 01:33N 50°49' W 001°06'  

Dump ship's entire track history